Time;durP1;ratioP1;P1;durP2;ratioP2;P2;SDS_P1;SDS_P2;PMS_P1;PMS_P2;Temp;Humidity;BMP_temperature;BMP_pressure;BME280_temperature;BME280_humidity;BME280_pressure;Samples;Min_cycle;Max_cycle;Signal;HPM_P1;HPM_P2
2021/05/15 00:02:04;;;;;;;19.23;16.70;;;;;;;14.98;56.42;100630.38;4981309;28;114376;-67
2021/05/15 00:04:30;;;;;;;22.48;18.25;;;;;;;14.94;56.36;100622.69;4982795;28;114250;-67
2021/05/15 00:06:56;;;;;;;23.25;18.80;;;;;;;14.91;56.61;100623.72;4980086;28;123934;-68
2021/05/15 00:09:22;;;;;;;21.70;18.08;;;;;;;14.87;56.55;100627.56;4980095;28;123753;-68
2021/05/15 00:11:48;;;;;;;20.27;17.30;;;;;;;14.83;56.35;100620.72;4977168;28;113384;-68
2021/05/15 00:14:14;;;;;;;20.05;16.98;;;;;;;14.79;56.59;100621.91;4978725;28;113926;-68
2021/05/15 00:16:40;;;;;;;20.40;17.25;;;;;;;14.74;56.41;100629.34;4986588;28;123841;-68
2021/05/15 00:19:07;;;;;;;20.70;17.98;;;;;;;14.69;56.48;100636.78;4975723;28;124393;-68
2021/05/15 00:21:33;;;;;;;22.60;18.67;;;;;;;14.63;56.67;100631.84;4979214;28;113691;-67
2021/05/15 00:24:00;;;;;;;21.95;17.85;;;;;;;14.59;56.82;100634.69;4981522;28;114390;-68
2021/05/15 00:26:27;;;;;;;20.08;17.10;;;;;;;14.56;56.99;100629.56;4981850;28;124104;-68
2021/05/15 00:28:53;;;;;;;21.30;17.05;;;;;;;14.54;57.18;100620.81;4975842;28;124525;-68
2021/05/15 00:31:19;;;;;;;20.75;16.88;;;;;;;14.52;57.08;100622.72;4977332;28;114222;-68
2021/05/15 00:33:46;;;;;;;23.27;17.25;;;;;;;14.51;57.38;100620.16;4993484;28;113807;-67
2021/05/15 00:36:12;;;;;;;21.60;17.02;;;;;;;14.50;57.46;100618.44;4957625;28;124203;-67
2021/05/15 00:38:38;;;;;;;19.98;16.15;;;;;;;14.48;57.53;100610.53;4998256;28;124398;-67
2021/05/15 00:41:05;;;;;;;20.65;16.60;;;;;;;14.46;57.58;100612.44;4975674;28;115418;-67
2021/05/15 00:43:31;;;;;;;19.05;17.00;;;;;;;14.45;57.51;100609.88;4969444;28;114805;-67
2021/05/15 00:45:58;;;;;;;20.52;17.77;;;;;;;14.45;57.63;100621.41;4980275;28;124026;-67
2021/05/15 00:48:24;;;;;;;20.55;17.77;;;;;;;14.43;57.64;100620.66;4975599;28;123205;-67
2021/05/15 00:50:50;;;;;;;21.38;17.42;;;;;;;14.42;57.81;100610.94;4971724;28;113381;-68
2021/05/15 00:53:18;;;;;;;20.23;17.45;;;;;;;14.39;57.97;100616.44;4973722;28;113328;-67
2021/05/15 00:55:44;;;;;;;20.58;17.42;;;;;;;14.38;58.03;100609.44;4985489;28;124095;-67
2021/05/15 00:58:11;;;;;;;22.35;18.65;;;;;;;14.38;58.04;100606.75;4973932;28;122940;-67
2021/05/15 01:00:37;;;;;;;22.05;18.60;;;;;;;14.37;58.04;100602.38;4982826;28;114638;-67
2021/05/15 01:03:04;;;;;;;22.05;19.02;;;;;;;14.36;58.15;100600.69;4980396;28;114311;-67
2021/05/15 01:05:30;;;;;;;25.83;20.70;;;;;;;14.35;58.27;100598.97;4969851;28;123563;-67
2021/05/15 01:07:56;;;;;;;25.00;20.40;;;;;;;14.35;58.34;100598.97;4977271;28;122704;-67
2021/05/15 01:10:22;;;;;;;24.77;21.55;;;;;;;14.35;58.38;100604.28;4977167;28;113715;-67
2021/05/15 01:12:55;;;;;;;24.17;20.67;;;;;;;14.35;58.51;100593.63;4980171;28;114342;-67
2021/05/15 01:15:23;;;;;;;25.38;22.10;;;;;;;14.36;58.50;100595.34;4976360;28;124006;-67
2021/05/15 01:17:57;;;;;;;25.90;21.88;;;;;;;14.37;58.55;100597.03;4983984;28;123928;-68
2021/05/15 01:20:26;;;;;;;26.05;21.70;;;;;;;14.39;58.83;100589.81;4973781;28;114141;-67
2021/05/15 01:22:55;;;;;;;27.33;22.77;;;;;;;14.40;58.54;100589.72;4973360;28;112998;-67
2021/05/15 01:25:21;;;;;;;26.52;21.92;;;;;;;14.41;58.59;100587.94;4978323;28;122306;-67
2021/05/15 01:27:47;;;;;;;26.98;23.35;;;;;;;14.43;58.53;100591.34;4973755;28;124109;-67
2021/05/15 01:30:14;;;;;;;30.42;24.55;;;;;;;14.45;58.59;100573.44;4980398;28;115123;-67
2021/05/15 01:32:45;;;;;;;30.80;24.00;;;;;;;14.45;58.71;100584.09;4979521;28;115216;-67
2021/05/15 01:35:15;;;;;;;29.90;24.67;;;;;;;14.47;58.67;100582.19;4976891;28;123846;-67
2021/05/15 01:37:41;;;;;;;30.63;25.23;;;;;;;14.48;58.60;100581.22;4979551;28;124163;-67
2021/05/15 01:40:09;;;;;;;35.50;26.88;;;;;;;14.50;58.61;100581.97;4982028;28;114013;-67
2021/05/15 01:42:35;;;;;;;30.50;26.17;;;;;;;14.50;58.71;100565.97;4974825;28;114134;-67
2021/05/15 01:45:04;;;;;;;31.58;26.52;;;;;;;14.48;58.74;100570.56;4979526;28;124915;-67
2021/05/15 01:47:34;;;;;;;30.98;25.98;;;;;;;14.48;58.78;100567.03;4980207;28;123274;-67
2021/05/15 01:50:00;;;;;;;36.38;29.20;;;;;;;14.49;58.80;100558.97;4980422;28;114256;-67
2021/05/15 01:52:26;;;;;;;33.75;27.38;;;;;;;14.49;58.90;100563.44;4977340;28;114538;-67
2021/05/15 01:54:52;;;;;;;33.97;28.23;;;;;;;14.49;59.06;100558.97;4972803;28;125426;-67
2021/05/15 01:57:18;;;;;;;36.80;29.48;;;;;;;14.47;59.07;100544.88;4993206;28;122226;-67
2021/05/15 01:59:44;;;;;;;40.60;29.65;;;;;;;14.47;59.13;100544.88;4981108;28;114661;-67
2021/05/15 02:02:10;;;;;;;39.85;30.83;;;;;;;14.47;59.17;100534.22;4977982;28;114113;-67
2021/05/15 02:04:36;;;;;;;42.85;31.88;;;;;;;14.47;59.21;100536.03;4982856;28;123991;-67
2021/05/15 02:07:02;;;;;;;43.88;32.22;;;;;;;14.44;59.32;100529.09;4982414;28;123762;-67
2021/05/15 02:09:28;;;;;;;45.97;33.05;;;;;;;14.42;59.34;100531.00;4977298;28;114943;-67
2021/05/15 02:11:54;;;;;;;41.63;32.13;;;;;;;14.41;59.39;100529.31;4974750;28;114030;-67
2021/05/15 02:14:20;;;;;;;44.45;33.22;;;;;;;14.40;59.78;100535.56;4982305;28;124535;-67
2021/05/15 02:16:46;;;;;;;43.45;31.83;;;;;;;14.40;59.83;100522.25;4978348;28;125178;-67
2021/05/15 02:19:12;;;;;;;45.88;31.88;;;;;;;14.43;59.68;100515.84;4978931;28;114045;-67
2021/05/15 02:21:38;;;;;;;45.90;33.00;;;;;;;14.45;59.83;100525.47;4967460;28;113810;-67
2021/05/15 02:24:04;;;;;;;46.85;32.42;;;;;;;14.46;59.71;100524.50;4977173;28;124406;-67
2021/05/15 02:26:30;;;;;;;48.67;34.13;;;;;;;14.48;59.94;100522.59;4982723;28;123001;-67
2021/05/15 02:28:56;;;;;;;46.72;33.35;;;;;;;14.49;59.94;100516.31;4978330;28;114167;-67
2021/05/15 02:31:22;;;;;;;46.90;33.80;;;;;;;14.50;59.96;100525.16;4974921;28;114298;-70
2021/05/15 02:33:48;;;;;;;44.10;32.85;;;;;;;14.51;59.87;100524.22;4979031;28;123029;-67
2021/05/15 02:36:14;;;;;;;42.05;32.13;;;;;;;14.52;59.70;100510.78;4994901;28;121969;-67
2021/05/15 02:38:40;;;;;;;48.38;33.85;;;;;;;14.54;59.90;100514.22;4980680;28;113785;-67
2021/05/15 02:41:06;;;;;;;47.00;33.97;;;;;;;14.56;59.84;100512.28;4998914;28;113317;-67
2021/05/15 02:43:32;;;;;;;46.35;34.22;;;;;;;14.58;59.89;100514.91;4970259;28;124784;-67
2021/05/15 02:45:58;;;;;;;43.22;33.83;;;;;;;14.60;59.85;100513.81;4968903;28;122836;-67
2021/05/15 02:48:24;;;;;;;44.08;34.17;;;;;;;14.62;59.89;100507.53;4977605;28;114578;-68
2021/05/15 02:50:52;;;;;;;49.92;36.05;;;;;;;14.63;59.92;100506.56;4983887;28;114115;-67
2021/05/15 02:53:19;;;;;;;52.63;35.80;;;;;;;14.66;59.95;100506.38;4979534;28;124138;-68
2021/05/15 02:55:45;;;;;;;47.40;34.58;;;;;;;14.68;59.97;100499.13;4973258;28;123249;-68
2021/05/15 02:58:13;;;;;;;43.53;33.60;;;;;;;14.71;60.07;100501.56;4976751;28;114088;-69
2021/05/15 03:00:39;;;;;;;47.05;33.60;;;;;;;14.71;59.93;100499.78;4978091;28;114104;-67
2021/05/15 03:03:05;;;;;;;51.38;36.15;;;;;;;14.73;60.05;100507.66;4983829;28;124635;-68
2021/05/15 03:05:31;;;;;;;46.97;33.40;;;;;;;14.73;59.92;100496.97;4976938;28;123888;-68
2021/05/15 03:07:57;;;;;;;46.30;31.98;;;;;;;14.71;59.91;100494.44;4979084;28;115399;-68
2021/05/15 03:10:26;;;;;;;42.28;31.80;;;;;;;14.69;59.95;100495.50;4976214;28;114456;-68
2021/05/15 03:12:54;;;;;;;44.20;33.10;;;;;;;14.70;59.95;100499.88;4977256;28;123674;-68
2021/05/15 03:15:22;;;;;;;43.90;31.85;;;;;;;14.70;59.93;100494.53;4981081;28;122721;-68
2021/05/15 03:17:48;;;;;;;43.15;31.98;;;;;;;14.68;59.97;100493.81;4986533;28;114343;-67
2021/05/15 03:20:21;;;;;;;44.80;31.23;;;;;;;14.69;60.04;100500.81;4953047;28;113321;-68
2021/05/15 03:22:47;;;;;;;38.60;30.63;;;;;;;14.71;60.15;100493.56;4972341;28;124812;-67
2021/05/15 03:25:15;;;;;;;42.85;31.73;;;;;;;14.72;60.05;100500.63;4961179;28;123020;-67
2021/05/15 03:27:41;;;;;;;45.13;32.85;;;;;;;14.72;59.95;100500.63;4976415;28;114641;-67
2021/05/15 03:30:09;;;;;;;44.13;32.55;;;;;;;14.73;60.07;100496.97;5002405;28;112949;-67
2021/05/15 03:32:36;;;;;;;45.30;33.60;;;;;;;14.71;60.00;100493.56;4982607;28;124104;-68
2021/05/15 03:35:03;;;;;;;45.08;31.98;;;;;;;14.70;59.99;100497.22;4985158;28;123507;-67
2021/05/15 03:37:29;;;;;;;46.45;33.97;;;;;;;14.68;59.98;100499.13;4981957;28;113366;-67
2021/05/15 03:39:55;;;;;;;44.58;31.92;;;;;;;14.67;59.90;100494.75;4978471;28;114360;-67
2021/05/15 03:42:21;;;;;;;43.95;32.65;;;;;;;14.67;60.01;100497.41;4980446;28;124946;-67
2021/05/15 03:44:47;;;;;;;46.88;32.58;;;;;;;14.65;60.13;100488.66;4972322;28;123157;-67
2021/05/15 03:47:13;;;;;;;47.17;33.30;;;;;;;14.64;59.96;100486.97;4983024;28;113470;-67
2021/05/15 03:49:39;;;;;;;47.75;32.83;;;;;;;14.66;59.96;100490.38;4983059;28;113195;-67
2021/05/15 03:52:06;;;;;;;42.50;31.95;;;;;;;14.66;59.99;100491.22;4977534;28;124041;-67
2021/05/15 03:54:32;;;;;;;45.75;32.50;;;;;;;14.68;60.10;100488.47;4981336;28;124325;-67
2021/05/15 03:56:58;;;;;;;44.47;31.88;;;;;;;14.69;60.16;100495.50;4981184;28;114992;-67
2021/05/15 03:59:24;;;;;;;44.58;32.92;;;;;;;14.69;60.14;100484.81;4991149;28;115429;-68
2021/05/15 04:01:50;;;;;;;44.22;30.38;;;;;;;14.70;60.12;100491.88;4974291;28;124147;-68
2021/05/15 04:04:16;;;;;;;46.10;31.42;;;;;;;14.69;60.08;100488.38;4989308;28;124272;-67
2021/05/15 04:06:42;;;;;;;48.70;32.80;;;;;;;14.70;60.10;100486.53;4978729;28;114992;-68
2021/05/15 04:09:08;;;;;;;43.45;32.05;;;;;;;14.71;60.02;100498.91;4980875;28;113754;-68
2021/05/15 04:11:36;;;;;;;49.80;32.47;;;;;;;14.68;60.06;100494.63;4971426;28;124169;-67
2021/05/15 04:14:19;;;;;;;45.95;32.53;;;;;;;14.66;59.90;100490.38;4974344;28;123566;-67
2021/05/15 04:19:31;;;;;;;47.53;31.98;;;;;;;14.62;59.95;100483.53;4998515;28;113353;-67
2021/05/15 04:21:57;;;;;;;48.72;31.25;;;;;;;14.59;59.82;100490.78;4981895;28;124865;-67
2021/05/15 04:24:25;;;;;;;48.88;32.45;;;;;;;14.58;60.01;100489.09;4982500;28;123203;-67
2021/05/15 04:26:56;;;;;;;45.60;31.08;;;;;;;14.57;60.05;100487.38;4992418;28;114355;-67
2021/05/15 04:29:23;;;;;;;48.85;32.38;;;;;;;14.59;60.09;100490.78;4994596;28;115028;-68
2021/05/15 04:31:53;;;;;;;51.58;34.08;;;;;;;14.56;60.05;100485.66;5013729;28;124451;-68
2021/05/15 04:34:20;;;;;;;50.97;33.97;;;;;;;14.54;60.19;100484.91;4984253;28;123520;-67
2021/05/15 04:36:46;;;;;;;47.90;31.80;;;;;;;14.54;60.15;100487.56;5007708;28;113472;-68
2021/05/15 04:39:13;;;;;;;48.75;32.53;;;;;;;14.52;60.09;100484.16;4989167;28;113128;-68
2021/05/15 04:41:39;;;;;;;46.72;31.35;;;;;;;14.52;60.25;100489.47;4980144;28;123324;-68
2021/05/15 04:44:05;;;;;;;54.60;33.47;;;;;;;14.52;60.25;100484.16;4983226;28;123086;-67
2021/05/15 04:46:31;;;;;;;53.17;32.75;;;;;;;14.51;60.05;100492.25;4979795;28;114075;-67
2021/05/15 04:48:57;;;;;;;47.53;31.40;;;;;;;14.47;60.05;100491.59;4996410;28;113929;-68
2021/05/15 04:51:23;;;;;;;45.72;31.77;;;;;;;14.44;60.20;100486.44;4981035;28;124065;-68
2021/05/15 04:53:49;;;;;;;49.00;32.60;;;;;;;14.42;60.20;100491.03;4979069;28;124152;-68
2021/05/15 04:56:15;;;;;;;50.03;32.85;;;;;;;14.40;60.17;100490.28;4979819;28;114600;-68
2021/05/15 04:58:42;;;;;;;51.88;31.33;;;;;;;14.38;60.36;100477.06;4970054;28;113073;-68
2021/05/15 05:01:08;;;;;;;51.08;32.20;;;;;;;14.38;60.34;100486.88;4982832;28;123134;-68
2021/05/15 05:03:34;;;;;;;49.97;32.70;;;;;;;14.39;60.48;100493.88;4981419;28;123608;-68
2021/05/15 05:06:00;;;;;;;50.63;33.38;;;;;;;14.40;60.46;100484.97;4989278;28;114304;-68
2021/05/15 05:08:26;;;;;;;47.65;31.67;;;;;;;14.40;60.12;100485.81;4981020;28;113466;-68
2021/05/15 05:10:53;;;;;;;52.35;31.77;;;;;;;14.40;60.03;100490.28;4981563;28;124103;-69
2021/05/15 05:13:19;;;;;;;52.75;33.10;;;;;;;14.39;59.96;100483.22;4993634;22;124451;-65
2021/05/15 05:15:46;;;;;;;46.47;30.88;;;;;;;14.39;59.97;100478.78;4970073;28;114968;-65
2021/05/15 05:18:12;;;;;;;46.30;30.40;;;;;;;14.39;59.95;100483.22;4969354;28;114270;-65
2021/05/15 05:20:39;;;;;;;49.90;30.75;;;;;;;14.36;59.86;100483.47;4971438;28;124781;-65
2021/05/15 05:23:05;;;;;;;48.17;30.30;;;;;;;14.36;59.96;100484.31;4966317;28;123790;-65
2021/05/15 05:25:31;;;;;;;47.22;29.48;;;;;;;14.37;60.02;100482.47;4972310;28;114262;-65
2021/05/15 05:27:58;;;;;;;51.70;30.23;;;;;;;14.37;59.99;100486.03;4970769;28;113172;-64
2021/05/15 05:30:25;;;;;;;50.00;29.38;;;;;;;14.39;60.03;100485.91;4970229;28;124026;-64
2021/05/15 05:32:52;;;;;;;44.17;28.85;;;;;;;14.39;60.10;100488.56;4969761;28;124132;-64
2021/05/15 05:35:19;;;;;;;46.70;29.10;;;;;;;14.39;59.89;100499.22;4971077;28;115566;-64
2021/05/15 05:37:46;;;;;;;46.75;29.48;;;;;;;14.38;59.96;100492.19;4981469;28;114600;-64
2021/05/15 05:40:13;;;;;;;42.42;26.02;;;;;;;14.36;59.81;100488.78;4971208;28;124810;-64
2021/05/15 05:42:40;;;;;;;41.75;27.00;;;;;;;14.31;59.86;100485.56;4969742;28;124497;-65
2021/05/15 05:45:15;;;;;;;44.55;27.02;;;;;;;14.31;59.85;100490.88;4971062;28;113506;-64
2021/05/15 05:47:41;;;;;;;43.92;26.33;;;;;;;14.31;59.91;100485.56;4969568;28;114150;-64
2021/05/15 05:50:09;;;;;;;48.85;26.50;;;;;;;14.30;59.72;100486.53;4969070;28;124417;-63
2021/05/15 05:52:35;;;;;;;50.03;27.23;;;;;;;14.28;59.72;100491.97;4972091;28;123945;-63
2021/05/15 05:55:03;;;;;;;44.15;25.67;;;;;;;14.30;59.79;100494.53;4972476;28;115012;-63
2021/05/15 05:57:29;;;;;;;43.45;25.55;;;;;;;14.30;59.76;100494.53;4972192;28;114761;-64
2021/05/15 05:59:55;;;;;;;46.20;26.60;;;;;;;14.30;59.92;100494.53;4964154;28;124101;-64
2021/05/15 06:02:21;;;;;;;49.65;26.88;;;;;;;14.29;59.81;100487.47;4969132;28;124347;-65
2021/05/15 06:04:47;;;;;;;46.38;27.45;;;;;;;14.30;59.96;100489.19;4971661;28;115027;-64
2021/05/15 06:07:13;;;;;;;54.03;31.15;;;;;;;14.31;59.78;100490.88;4970053;28;113167;-65
2021/05/15 06:09:40;;;;;;;57.63;31.52;;;;;;;14.33;59.95;100491.63;4969703;28;124281;-64
2021/05/15 06:12:10;;;;;;;56.85;33.58;;;;;;;14.35;60.03;100492.38;4970350;28;121897;-63
2021/05/15 06:14:37;;;;;;;58.33;33.80;;;;;;;14.37;60.15;100496.69;4971056;28;113985;-65
2021/05/15 06:17:03;;;;;;;61.35;34.45;;;;;;;14.41;60.19;100487.53;4969994;28;112909;-65
2021/05/15 06:19:29;;;;;;;61.08;35.85;;;;;;;14.45;60.21;100498.84;4969154;28;124425;-65
2021/05/15 06:21:56;;;;;;;58.65;34.90;;;;;;;14.50;60.27;100494.03;4969505;28;123873;-65
2021/05/15 06:24:21;;;;;;;60.80;36.88;;;;;;;14.57;60.40;100486.53;4978711;28;114272;-64
2021/05/15 06:26:48;;;;;;;58.95;36.47;;;;;;;14.63;59.92;100495.91;4970579;28;115383;-64
2021/05/15 06:29:14;;;;;;;58.15;35.80;;;;;;;14.67;60.05;100486.75;4969280;28;123249;-65
2021/05/15 06:31:40;;;;;;;58.00;36.08;;;;;;;14.71;59.92;100490.91;4970708;28;123154;-65
2021/05/15 06:34:06;;;;;;;55.58;35.55;;;;;;;14.71;59.76;100482.91;4971529;28;114394;-65
2021/05/15 06:36:32;;;;;;;60.30;37.33;;;;;;;14.73;59.85;100486.31;4969229;28;114140;-65
2021/05/15 06:38:58;;;;;;;57.78;36.17;;;;;;;14.76;59.80;100491.44;4968230;28;124287;-65
2021/05/15 06:41:24;;;;;;;56.80;36.88;;;;;;;14.78;59.92;100489.53;4968714;28;124291;-65
2021/05/15 06:43:51;;;;;;;57.40;36.97;;;;;;;14.81;59.89;100484.00;4987319;28;113451;-64
2021/05/15 06:46:18;;;;;;;57.75;37.58;;;;;;;14.85;59.92;100490.81;4972544;28;113942;-65
2021/05/15 06:48:44;;;;;;;57.83;36.55;;;;;;;14.89;59.68;100492.31;4974192;28;124463;-66
2021/05/15 06:51:10;;;;;;;63.83;38.55;;;;;;;14.92;59.79;100489.44;4975483;28;124046;-65
2021/05/15 06:53:36;;;;;;;57.63;36.22;;;;;;;14.94;59.66;100484.88;4973424;28;115136;-66
2021/05/15 06:56:02;;;;;;;61.08;37.00;;;;;;;14.97;59.54;100479.31;4974107;28;114432;-65
2021/05/15 06:58:28;;;;;;;59.28;36.10;;;;;;;15.03;59.51;100485.16;4973208;28;124372;-65
2021/05/15 07:00:54;;;;;;;53.40;35.50;;;;;;;15.04;59.21;100485.06;4973641;28;123970;-65
2021/05/15 07:03:20;;;;;;;58.35;36.80;;;;;;;15.06;59.25;100484.97;4957830;28;113207;-65
2021/05/15 07:05:46;;;;;;;60.63;36.78;;;;;;;15.07;59.15;100489.31;4975909;28;114136;-65
2021/05/15 07:08:13;;;;;;;62.03;37.53;;;;;;;15.09;59.26;100487.44;4972455;28;124114;-66
2021/05/15 07:10:39;;;;;;;60.67;37.78;;;;;;;15.12;59.22;100484.53;4972724;28;123927;-66
2021/05/15 07:13:05;;;;;;;63.63;38.75;;;;;;;15.16;59.22;100478.91;4966700;28;115501;-65
2021/05/15 07:15:31;;;;;;;62.13;38.25;;;;;;;15.21;59.16;100480.38;4971335;28;115236;-65
2021/05/15 07:18:01;;;;;;;58.88;37.28;;;;;;;15.24;58.77;100470.34;4982182;28;124165;-65
2021/05/15 07:20:27;;;;;;;61.08;38.03;;;;;;;15.25;58.65;100472.03;4972029;28;124439;-65
2021/05/15 07:22:53;;;;;;;57.72;37.13;;;;;;;15.26;58.45;100473.75;4971661;28;114545;-65
2021/05/15 07:25:19;;;;;;;58.35;37.45;;;;;;;15.27;58.49;100472.78;4965518;28;114851;-65
2021/05/15 07:27:45;;;;;;;61.47;38.03;;;;;;;15.29;58.47;100468.19;4973419;28;124165;-65
2021/05/15 07:30:12;;;;;;;61.28;38.03;;;;;;;15.32;58.49;100467.97;4973630;28;124639;-65
2021/05/15 07:32:38;;;;;;;62.00;38.38;;;;;;;15.36;58.59;100464.13;4974008;28;114148;-65
2021/05/15 07:35:04;;;;;;;64.13;38.85;;;;;;;15.41;58.41;100462.94;4971627;28;114016;-65
2021/05/15 07:37:30;;;;;;;58.90;37.95;;;;;;;15.42;58.49;100457.50;4972363;28;124071;-64
2021/05/15 07:39:56;;;;;;;58.83;37.70;;;;;;;15.48;58.09;100456.22;4971066;28;124196;-65
2021/05/15 07:42:22;;;;;;;56.10;36.65;;;;;;;15.51;58.28;100448.00;4973257;28;114472;-65
2021/05/15 07:44:48;;;;;;;57.13;36.08;;;;;;;15.57;57.96;100455.53;4969954;28;113999;-65
2021/05/15 07:47:14;;;;;;;53.40;36.30;;;;;;;15.64;57.81;100448.81;4972980;28;124346;-65
2021/05/15 07:49:40;;;;;;;58.08;37.33;;;;;;;15.70;57.77;100445.69;4971042;28;124394;-65
2021/05/15 07:52:06;;;;;;;54.50;35.53;;;;;;;15.74;57.40;100452.53;4972413;28;114273;-65
2021/05/15 07:54:32;;;;;;;55.00;37.55;;;;;;;15.78;57.40;100447.81;4972715;28;114268;-65
2021/05/15 07:56:58;;;;;;;54.35;37.38;;;;;;;15.82;57.35;100451.13;4970218;28;122354;-65
2021/05/15 07:59:25;;;;;;;56.58;36.88;;;;;;;15.88;57.38;100453.34;4968826;28;124494;-65
2021/05/15 08:01:51;;;;;;;56.67;36.97;;;;;;;15.94;57.29;100453.75;4972830;28;115379;-65
2021/05/15 08:04:17;;;;;;;55.47;35.65;;;;;;;16.01;57.06;100448.81;4972218;28;115297;-65
2021/05/15 08:06:43;;;;;;;52.67;36.65;;;;;;;16.10;57.05;100453.44;4972702;28;124365;-65
2021/05/15 08:09:09;;;;;;;50.72;35.20;;;;;;;16.21;57.20;100443.78;4972335;28;124220;-65
2021/05/15 08:11:36;;;;;;;51.22;35.38;;;;;;;16.29;56.91;100447.59;4973753;28;114301;-65
2021/05/15 08:14:04;;;;;;;47.53;34.63;;;;;;;16.39;56.71;100442.41;4965495;28;113405;-65
2021/05/15 08:16:34;;;;;;;47.25;32.90;;;;;;;16.46;56.21;100454.34;4972273;28;124597;-65
2021/05/15 08:19:01;;;;;;;49.97;34.47;;;;;;;16.51;55.84;100452.16;4971173;28;122926;-65
2021/05/15 08:21:27;;;;;;;49.38;33.42;;;;;;;16.50;55.72;100455.81;4971602;28;114527;-65
2021/05/15 08:23:54;;;;;;;46.83;33.78;;;;;;;16.51;55.38;100454.81;4973556;28;114396;-65
2021/05/15 08:26:21;;;;;;;48.83;33.20;;;;;;;16.51;55.34;100457.50;4961742;28;124114;-65
2021/05/15 08:28:52;;;;;;;47.83;33.05;;;;;;;16.54;55.56;100445.72;4970650;28;123852;-65
2021/05/15 08:31:18;;;;;;;46.83;32.80;;;;;;;16.61;55.56;100440.75;4974451;28;114640;-65
2021/05/15 08:33:44;;;;;;;48.65;33.40;;;;;;;16.67;55.44;100445.63;4972499;28;113916;-65
2021/05/15 08:36:11;;;;;;;43.92;30.67;;;;;;;16.73;55.30;100439.81;4971570;28;124150;-65
2021/05/15 08:38:38;;;;;;;44.38;31.30;;;;;;;16.81;55.32;100437.41;4972135;28;124349;-66
2021/05/15 08:41:05;;;;;;;41.40;28.60;;;;;;;16.89;54.84;100444.84;4970662;28;114574;-65
2021/05/15 08:43:34;;;;;;;38.88;28.77;;;;;;;16.99;54.54;100436.94;4973312;28;113213;-65
2021/05/15 08:46:01;;;;;;;44.58;30.35;;;;;;;17.07;54.26;100442.56;4977625;28;123533;-65
2021/05/15 08:48:30;;;;;;;40.88;28.88;;;;;;;17.11;53.79;100444.03;4970046;28;123970;-65
2021/05/15 08:51:00;;;;;;;46.15;29.92;;;;;;;17.13;53.47;100431.38;4970892;28;115281;-65
2021/05/15 08:53:27;;;;;;;44.80;29.60;;;;;;;17.16;53.36;100433.81;4972848;28;115164;-65
2021/05/15 08:55:53;;;;;;;43.85;30.15;;;;;;;17.18;52.79;100437.22;4973492;28;124246;-65
2021/05/15 08:58:20;;;;;;;43.72;30.05;;;;;;;17.17;52.81;100432.81;4970113;28;124012;-65
2021/05/15 09:00:49;;;;;;;46.50;32.00;;;;;;;17.21;53.22;100426.25;4971341;28;114408;-65
2021/05/15 09:03:19;;;;;;;47.13;31.60;;;;;;;17.34;53.33;100417.25;4972217;28;114088;-65
2021/05/15 09:05:52;;;;;;;47.78;32.42;;;;;;;17.48;53.22;100419.69;4961166;28;124327;-65
2021/05/15 09:08:19;;;;;;;44.90;31.65;;;;;;;17.63;53.30;100422.91;4971836;28;124733;-65
2021/05/15 09:10:49;;;;;;;46.55;33.05;;;;;;;17.76;53.49;100412.06;4967119;28;114920;-65
2021/05/15 09:13:25;;;;;;;43.05;31.48;;;;;;;17.90;52.52;100417.16;4965266;28;113790;-63
2021/05/15 09:15:58;;;;;;;45.30;32.85;;;;;;;17.99;52.36;100419.09;4970583;28;123785;-63
2021/05/15 09:18:33;;;;;;;42.40;31.98;;;;;;;18.12;52.45;100418.03;4971472;28;123992;-63
2021/05/15 09:21:03;;;;;;;43.27;31.60;;;;;;;18.25;52.15;100402.63;4971284;28;113143;-63
2021/05/15 09:23:37;;;;;;;44.20;31.48;;;;;;;18.39;51.98;100405.00;4970101;28;114393;-63
2021/05/15 09:26:09;;;;;;;43.22;31.42;;;;;;;18.55;51.61;100398.31;4964441;28;124246;-63
2021/05/15 09:28:44;;;;;;;46.42;33.00;;;;;;;18.70;51.44;100386.25;4969589;28;124030;-63
2021/05/15 09:31:31;;;;;;;34.90;25.75;;;;;;;18.83;51.04;100386.94;4968002;28;114242;-63
2021/05/15 09:34:05;;;;;;;38.35;27.23;;;;;;;18.88;49.65;100380.34;4970588;28;114354;-62
2021/05/15 09:36:39;;;;;;;38.63;27.17;;;;;;;18.92;49.99;100371.03;4967686;28;124329;-63
2021/05/15 09:39:11;;;;;;;38.07;27.33;;;;;;;18.96;49.86;100364.41;4968596;28;124985;-63
2021/05/15 09:41:53;;;;;;;34.60;24.92;;;;;;;18.98;49.30;100357.06;4978659;28;114904;-63
2021/05/15 09:44:21;;;;;;;35.50;24.67;;;;;;;19.02;48.99;100353.13;4970199;28;115470;-63
2021/05/15 09:46:49;;;;;;;34.25;25.90;;;;;;;19.12;49.18;100353.16;4970735;28;124088;-63
2021/05/15 09:49:20;;;;;;;36.15;25.67;;;;;;;19.22;49.07;100352.19;4967869;28;124783;-63
2021/05/15 09:51:53;;;;;;;35.58;26.13;;;;;;;19.31;49.18;100344.28;4970293;28;114483;-63
2021/05/15 09:54:29;;;;;;;31.73;24.13;;;;;;;19.39;48.47;100341.78;4968814;28;114169;-63
2021/05/15 09:57:06;;;;;;;30.55;21.92;;;;;;;19.45;48.28;100338.53;4984725;28;124363;-62
2021/05/15 09:59:49;;;;;;;28.77;21.83;;;;;;;19.52;48.23;100333.47;4968633;28;96811;-63
2021/05/15 10:02:18;;;;;;;29.80;22.88;;;;;;;19.61;47.83;100338.00;4964171;28;114621;-63
2021/05/15 10:04:51;;;;;;;30.33;21.90;;;;;;;19.70;48.37;100322.84;4971239;28;114275;-62
2021/05/15 10:07:25;;;;;;;28.48;21.02;;;;;;;19.82;48.10;100324.47;4966874;28;125002;-63
2021/05/15 10:09:52;;;;;;;26.35;19.20;;;;;;;19.92;47.24;100325.28;4969680;28;123925;-63
2021/05/15 10:12:22;;;;;;;26.75;19.77;;;;;;;19.97;47.22;100317.66;4967326;28;113514;-63
2021/05/15 10:14:50;;;;;;;27.27;19.98;;;;;;;20.03;46.91;100310.84;4973192;28;113492;-63
2021/05/15 10:17:18;;;;;;;29.58;20.35;;;;;;;20.11;47.02;100308.28;4978291;28;124365;-63
2021/05/15 10:19:45;;;;;;;24.30;18.42;;;;;;;20.23;46.50;100309.00;4969853;28;124182;-63
2021/05/15 10:22:12;;;;;;;24.73;17.52;;;;;;;20.31;46.00;100306.41;4970534;28;114283;-63
2021/05/15 10:24:45;;;;;;;26.70;19.05;;;;;;;20.38;45.89;100303.97;4971299;28;113994;-63
2021/05/15 10:27:13;;;;;;;26.90;20.67;;;;;;;20.42;45.71;100303.56;4968082;28;123555;-63
2021/05/15 10:29:53;;;;;;;24.80;19.25;;;;;;;20.41;45.73;100288.41;4972117;28;123998;-63
2021/05/15 10:32:23;;;;;;;24.95;20.10;;;;;;;20.44;45.62;100284.59;4969046;28;115124;-63
2021/05/15 10:35:03;;;;;;;25.88;19.02;;;;;;;20.49;45.76;100279.59;4971111;28;113892;-62
2021/05/15 10:37:35;;;;;;;24.67;19.38;;;;;;;20.53;45.14;100281.03;4981600;28;123809;-62
2021/05/15 10:40:16;;;;;;;23.55;18.25;;;;;;;20.54;45.23;100277.31;4973832;28;123155;-63
2021/05/15 10:42:43;;;;;;;27.77;19.77;;;;;;;20.55;45.14;100272.78;4965949;28;115057;-63
2021/05/15 10:45:11;;;;;;;24.95;18.67;;;;;;;20.51;44.90;100276.75;4965796;28;113872;-63
2021/05/15 10:47:42;;;;;;;25.55;17.60;;;;;;;20.42;44.24;100273.97;4970755;28;124283;-63
2021/05/15 10:50:21;;;;;;;22.50;17.90;;;;;;;20.32;44.30;100281.19;4969119;28;124294;-63
2021/05/15 10:52:50;;;;;;;20.60;14.02;;;;;;;20.20;44.63;100285.91;4971431;28;114296;-63
2021/05/15 10:55:32;;;;;;;10.13;7.13;;;;;;;20.01;44.94;100286.81;4968595;28;114151;-63
2021/05/15 10:58:10;;;;;;;6.13;3.72;;;;;;;19.75;44.98;100297.28;4970522;28;124869;-63
2021/05/15 11:00:41;;;;;;;5.13;3.10;;;;;;;19.49;45.07;100310.41;4966978;28;124797;-64
2021/05/15 11:03:09;;;;;;;5.55;2.78;;;;;;;19.20;45.58;100303.16;4969121;28;114238;-64
2021/05/15 11:05:44;;;;;;;4.00;2.30;;;;;;;18.89;46.02;100296.16;4972956;28;114440;-64
2021/05/15 11:08:25;;;;;;;4.05;2.58;;;;;;;18.58;46.89;100285.44;4968630;28;124061;-63